Time;durP1;ratioP1;P1;durP2;ratioP2;P2;SDS_P1;SDS_P2;PMS_P1;PMS_P2;Temp;Humidity;BMP_temperature;BMP_pressure;BME280_temperature;BME280_humidity;BME280_pressure;Samples;Min_cycle;Max_cycle;Signal;HPM_P1;HPM_P2
2021/05/29 00:01:23;;;;;;;7.68;4.43;;;;;;;-145.50;100.00;65435.88;4973342;28;20054;-74
2021/05/29 00:03:50;;;;;;;8.30;4.68;;;;;;;-145.50;100.00;65435.88;4980189;28;21323;-75
2021/05/29 00:06:16;;;;;;;7.95;5.05;;;;;;;-145.50;100.00;65435.88;4971986;28;20120;-75
2021/05/29 00:08:43;;;;;;;10.00;4.95;;;;;;;-145.50;100.00;65435.88;4976557;28;20081;-75
2021/05/29 00:11:11;;;;;;;9.93;5.13;;;;;;;-145.50;100.00;65435.88;4972986;28;20436;-75
2021/05/29 00:13:38;;;;;;;7.63;4.72;;;;;;;-145.50;100.00;65435.88;4960217;28;20101;-75
2021/05/29 00:16:08;;;;;;;7.70;4.90;;;;;;;-145.50;100.00;65435.88;4977905;28;20553;-75
2021/05/29 00:18:37;;;;;;;12.55;5.63;;;;;;;-145.50;100.00;65435.88;4973210;28;20051;-75
2021/05/29 00:21:04;;;;;;;9.55;4.95;;;;;;;-145.50;100.00;65435.88;4973984;28;20133;-75
2021/05/29 00:23:30;;;;;;;8.70;5.18;;;;;;;-145.50;100.00;65435.88;4965961;28;20081;-75
2021/05/29 00:25:57;;;;;;;9.05;5.50;;;;;;;-145.50;100.00;65435.88;4978719;28;20109;-74
2021/05/29 00:28:23;;;;;;;6.78;4.80;;;;;;;-145.50;100.00;65435.88;4966164;28;20490;-75
2021/05/29 00:30:50;;;;;;;12.00;5.88;;;;;;;-145.50;100.00;65435.88;4959434;28;20109;-75
2021/05/29 00:33:16;;;;;;;8.15;5.55;;;;;;;-145.50;100.00;65435.88;4982956;28;20504;-75
2021/05/29 00:35:43;;;;;;;14.15;5.82;;;;;;;-145.50;100.00;65435.88;4970582;28;20085;-75
2021/05/29 00:38:09;;;;;;;10.20;5.90;;;;;;;-145.50;100.00;65435.88;4976040;28;20106;-75
2021/05/29 00:40:36;;;;;;;11.60;6.30;;;;;;;-145.50;100.00;65435.88;4970299;28;20088;-73
2021/05/29 00:43:04;;;;;;;9.85;6.45;;;;;;;-145.50;100.00;65435.88;4978582;28;20280;-75
2021/05/29 00:45:31;;;;;;;10.90;6.70;;;;;;;-145.50;100.00;65435.88;4976343;28;20050;-72
2021/05/29 00:48:00;;;;;;;11.13;6.57;;;;;;;-145.50;100.00;65435.88;4970293;28;20156;-73
2021/05/29 00:50:27;;;;;;;;;;;;;;;-145.50;100.00;65435.88;4970273;28;20082;-73
2021/05/29 00:52:54;;;;;;;15.13;7.20;;;;;;;-145.50;100.00;65435.88;4952688;28;20004;-73
2021/05/29 00:55:22;;;;;;;12.40;7.10;;;;;;;-145.50;100.00;65435.88;4977991;28;20057;-72
2021/05/29 00:57:50;;;;;;;13.98;6.60;;;;;;;-145.50;100.00;65435.88;4974594;28;20089;-73
2021/05/29 01:00:20;;;;;;;9.70;6.57;;;;;;;-145.50;100.00;65435.88;4978203;28;20061;-73
2021/05/29 01:02:49;;;;;;;13.18;7.18;;;;;;;-145.50;100.00;65435.88;4960625;28;20081;-73
2021/05/29 01:05:18;;;;;;;12.48;7.03;;;;;;;-145.50;100.00;65435.88;4966867;28;20545;-73
2021/05/29 01:07:50;;;;;;;15.10;7.00;;;;;;;-145.50;100.00;65435.88;4980664;28;20105;-72
2021/05/29 01:10:18;;;;;;;15.50;7.30;;;;;;;-145.50;100.00;65435.88;4968209;28;20140;-73
2021/05/29 01:12:46;;;;;;;10.80;6.60;;;;;;;-145.50;100.00;65435.88;4978665;28;20154;-73
2021/05/29 01:15:15;;;;;;;12.20;6.30;;;;;;;-145.50;100.00;65435.88;4969224;28;20161;-73
2021/05/29 01:17:42;;;;;;;12.57;6.85;;;;;;;-145.50;100.00;65435.88;4975195;28;20092;-73
2021/05/29 01:20:09;;;;;;;14.65;7.88;;;;;;;-145.50;100.00;65435.88;4965330;28;20155;-73
2021/05/29 01:22:37;;;;;;;13.65;6.97;;;;;;;-145.50;100.00;65435.88;4980488;28;20085;-73
2021/05/29 01:25:12;;;;;;;11.65;6.68;;;;;;;-145.50;100.00;65435.88;4979371;28;20059;-73
2021/05/29 01:27:39;;;;;;;10.82;7.03;;;;;;;-145.50;100.00;65435.88;4977148;28;20781;-74
2021/05/29 01:30:07;;;;;;;10.18;6.50;;;;;;;-145.50;100.00;65435.88;4974444;28;20051;-74
2021/05/29 01:32:33;;;;;;;9.57;6.33;;;;;;;-145.50;100.00;65435.88;4968553;28;20582;-73
2021/05/29 01:35:03;;;;;;;9.52;5.65;;;;;;;-145.50;100.00;65435.88;4979679;28;20048;-73
2021/05/29 01:37:29;;;;;;;10.45;5.97;;;;;;;-145.50;100.00;65435.88;4974752;28;20094;-73
2021/05/29 01:39:57;;;;;;;14.00;5.97;;;;;;;-145.50;100.00;65435.88;4979561;28;20146;-73
2021/05/29 01:42:25;;;;;;;11.70;5.70;;;;;;;-145.50;100.00;65435.88;4962550;28;20142;-73
2021/05/29 01:44:53;;;;;;;10.10;5.25;;;;;;;-145.50;100.00;65435.88;4952893;28;20054;-73
2021/05/29 01:47:20;;;;;;;8.05;5.25;;;;;;;-145.50;100.00;65435.88;4978640;28;20093;-73
2021/05/29 01:49:46;;;;;;;8.90;5.00;;;;;;;-145.50;100.00;65435.88;4971697;28;20481;-71
2021/05/29 01:52:13;;;;;;;7.70;5.55;;;;;;;-145.50;100.00;65435.88;4979139;28;20180;-72
2021/05/29 01:54:39;;;;;;;7.85;4.82;;;;;;;-145.50;100.00;65435.88;4970542;28;20145;-75
2021/05/29 01:57:06;;;;;;;9.38;4.93;;;;;;;-145.50;100.00;65435.88;4979658;28;20157;-72
2021/05/29 01:59:33;;;;;;;7.90;4.72;;;;;;;-145.50;100.00;65435.88;4972592;28;20089;-73
2021/05/29 02:02:00;;;;;;;13.35;5.22;;;;;;;-145.50;100.00;65435.88;4950429;28;20371;-73
2021/05/29 02:04:26;;;;;;;13.55;5.40;;;;;;;-145.50;100.00;65435.88;4977482;28;20093;-73
2021/05/29 02:06:53;;;;;;;7.63;4.85;;;;;;;-145.50;100.00;65435.88;4969341;28;20050;-73
2021/05/29 02:09:19;;;;;;;9.90;5.05;;;;;;;-145.50;100.00;65435.88;4959816;28;20046;-73
2021/05/29 02:11:46;;;;;;;8.35;5.18;;;;;;;-145.50;100.00;65435.88;4954474;28;20553;-73
2021/05/29 02:14:13;;;;;;;10.07;5.18;;;;;;;-145.50;100.00;65435.88;4958459;28;20078;-73
2021/05/29 02:16:39;;;;;;;7.07;4.65;;;;;;;-145.50;100.00;65435.88;4979193;28;20054;-74
2021/05/29 02:19:06;;;;;;;8.68;4.78;;;;;;;-145.50;100.00;65435.88;4958345;28;20046;-73
2021/05/29 02:21:32;;;;;;;8.20;4.70;;;;;;;-145.50;100.00;65435.88;4979524;28;20088;-74
2021/05/29 02:23:59;;;;;;;9.52;4.97;;;;;;;-145.50;100.00;65435.88;4979317;28;20089;-74
2021/05/29 02:26:25;;;;;;;13.05;4.78;;;;;;;-145.50;100.00;65435.88;4978507;28;20100;-74
2021/05/29 02:28:57;;;;;;;9.25;5.28;;;;;;;-145.50;100.00;65435.88;4970275;28;20462;-74
2021/05/29 02:31:24;;;;;;;8.95;5.30;;;;;;;-145.50;100.00;65435.88;4982937;28;20117;-74
2021/05/29 02:33:51;;;;;;;9.55;4.82;;;;;;;-145.50;100.00;65435.88;4967072;28;20059;-74
2021/05/29 02:36:18;;;;;;;13.07;5.72;;;;;;;-145.50;100.00;65435.88;4981723;28;20062;-74
2021/05/29 02:38:45;;;;;;;9.35;5.32;;;;;;;-145.50;100.00;65435.88;4985053;28;20085;-74
2021/05/29 02:41:12;;;;;;;10.02;5.38;;;;;;;-145.50;100.00;65435.88;4959461;28;20541;-74
2021/05/29 02:43:40;;;;;;;11.18;5.57;;;;;;;-145.50;100.00;65435.88;4980713;28;20058;-74
2021/05/29 02:46:09;;;;;;;10.13;5.53;;;;;;;-145.50;100.00;65435.88;4977659;28;20563;-74
2021/05/29 02:48:36;;;;;;;10.77;5.80;;;;;;;-145.50;100.00;65435.88;4965371;28;20054;-74
2021/05/29 02:51:03;;;;;;;11.40;5.50;;;;;;;-145.50;100.00;65435.88;4984196;28;20108;-74
2021/05/29 02:53:30;;;;;;;11.70;5.75;;;;;;;-145.50;100.00;65435.88;4959199;28;20054;-73
2021/05/29 02:55:56;;;;;;;12.32;5.50;;;;;;;-145.50;100.00;65435.88;4979728;28;20159;-73
2021/05/29 02:58:23;;;;;;;11.02;6.28;;;;;;;-145.50;100.00;65435.88;4961063;28;20104;-73
2021/05/29 03:00:50;;;;;;;10.63;5.78;;;;;;;-145.50;100.00;65435.88;4967968;28;20054;-73
2021/05/29 03:03:16;;;;;;;12.63;7.03;;;;;;;-145.50;100.00;65435.88;4977910;28;20490;-73
2021/05/29 03:05:47;;;;;;;9.50;5.57;;;;;;;-145.50;100.00;65435.88;4988434;28;20057;-74
2021/05/29 03:08:15;;;;;;;9.35;5.65;;;;;;;-145.50;100.00;65435.88;4982145;28;20078;-73
2021/05/29 03:10:45;;;;;;;9.38;6.03;;;;;;;-145.50;100.00;65435.88;4971341;28;20159;-73
2021/05/29 03:13:12;;;;;;;13.30;6.75;;;;;;;-145.50;100.00;65435.88;4981522;28;20066;-74
2021/05/29 03:15:38;;;;;;;10.10;6.10;;;;;;;-145.50;100.00;65435.88;4978473;28;20119;-74
2021/05/29 03:18:06;;;;;;;10.95;6.15;;;;;;;-145.50;100.00;65435.88;4968844;28;20054;-74
2021/05/29 03:20:34;;;;;;;10.80;5.88;;;;;;;-145.50;100.00;65435.88;4961463;28;20113;-74
2021/05/29 03:23:01;;;;;;;10.70;6.47;;;;;;;-145.50;100.00;65435.88;4975477;28;20486;-74
2021/05/29 03:25:28;;;;;;;12.98;6.65;;;;;;;-145.50;100.00;65435.88;4966597;28;20583;-74
2021/05/29 03:27:54;;;;;;;13.05;6.60;;;;;;;-145.50;100.00;65435.88;4977000;28;20104;-74
2021/05/29 03:30:28;;;;;;;12.15;6.65;;;;;;;-145.50;100.00;65435.88;4982613;28;20644;-74
2021/05/29 03:32:56;;;;;;;11.50;6.55;;;;;;;-145.50;100.00;65435.88;4970924;28;20140;-74
2021/05/29 03:35:23;;;;;;;15.52;6.53;;;;;;;-145.50;100.00;65435.88;4974954;28;20156;-74
2021/05/29 03:37:50;;;;;;;14.20;7.35;;;;;;;-145.50;100.00;65435.88;4969931;28;20164;-73
2021/05/29 03:40:17;;;;;;;10.23;6.70;;;;;;;-145.50;100.00;65435.88;4979949;28;20054;-74
2021/05/29 03:42:45;;;;;;;10.88;6.95;;;;;;;-145.50;100.00;65435.88;4975404;28;20046;-74
2021/05/29 03:45:14;;;;;;;13.80;7.00;;;;;;;-145.50;100.00;65435.88;4980894;28;20088;-74
2021/05/29 03:47:42;;;;;;;16.38;7.35;;;;;;;-145.50;100.00;65435.88;4983220;28;20081;-74
2021/05/29 03:50:11;;;;;;;12.20;7.50;;;;;;;-145.50;100.00;65435.88;4969948;28;20058;-74
2021/05/29 03:52:37;;;;;;;;;;;;;;;-145.50;100.00;65435.88;4977002;28;20054;-74
2021/05/29 03:55:05;;;;;;;12.68;7.88;;;;;;;-145.50;100.00;65435.88;4975161;28;20033;-74
2021/05/29 03:57:31;;;;;;;11.75;7.10;;;;;;;-145.50;100.00;65435.88;4982063;28;20160;-74
2021/05/29 03:59:58;;;;;;;12.70;7.22;;;;;;;-145.50;100.00;65435.88;4962615;28;20176;-74
2021/05/29 04:02:25;;;;;;;12.38;7.70;;;;;;;-145.50;100.00;65435.88;4959663;28;20081;-74
2021/05/29 04:04:51;;;;;;;12.25;7.53;;;;;;;-145.50;100.00;65435.88;4977243;28;20528;-74
2021/05/29 04:07:18;;;;;;;12.55;7.82;;;;;;;-145.50;100.00;65435.88;4976022;28;20501;-74
2021/05/29 04:09:44;;;;;;;12.20;6.90;;;;;;;-145.50;100.00;65435.88;4983852;28;20434;-74
2021/05/29 04:12:10;;;;;;;13.63;7.78;;;;;;;-145.50;100.00;65435.88;4973784;28;20081;-74
2021/05/29 04:14:37;;;;;;;16.33;7.90;;;;;;;-145.50;100.00;65435.88;4966120;28;20149;-74
2021/05/29 04:17:04;;;;;;;13.80;8.25;;;;;;;-145.50;100.00;65435.88;4980341;28;20512;-74
2021/05/29 04:19:30;;;;;;;14.82;7.85;;;;;;;-145.50;100.00;65435.88;4970377;28;20109;-74
2021/05/29 04:21:57;;;;;;;13.98;8.55;;;;;;;-145.50;100.00;65435.88;4974411;28;20113;-74
2021/05/29 04:24:24;;;;;;;13.43;8.43;;;;;;;-145.50;100.00;65435.88;4973639;28;20105;-74
2021/05/29 04:26:50;;;;;;;16.45;8.80;;;;;;;-145.50;100.00;65435.88;4982010;28;20140;-74
2021/05/29 04:29:17;;;;;;;14.75;8.23;;;;;;;-145.50;100.00;65435.88;4974856;28;20082;-74
2021/05/29 04:31:43;;;;;;;17.25;8.02;;;;;;;-145.50;100.00;65435.88;4981263;28;20112;-74
2021/05/29 04:34:10;;;;;;;17.73;9.13;;;;;;;-145.50;100.00;65435.88;4966754;28;20061;-75
2021/05/29 04:36:37;;;;;;;15.77;9.27;;;;;;;-145.50;100.00;65435.88;4978633;28;20135;-74
2021/05/29 04:39:04;;;;;;;15.30;9.27;;;;;;;-145.50;100.00;65435.88;4964719;28;20090;-74
2021/05/29 04:41:31;;;;;;;16.83;8.90;;;;;;;-145.50;100.00;65435.88;4971082;28;20050;-74
2021/05/29 04:43:57;;;;;;;18.17;9.75;;;;;;;-145.50;100.00;65435.88;4976975;28;20128;-74
2021/05/29 04:46:24;;;;;;;16.90;9.88;;;;;;;-145.50;100.00;65435.88;4959616;28;20141;-74
2021/05/29 04:48:50;;;;;;;15.60;9.63;;;;;;;-145.50;100.00;65435.88;4980964;28;20060;-74
2021/05/29 04:51:17;;;;;;;17.17;10.23;;;;;;;-145.50;100.00;65435.88;4965534;28;20082;-74
2021/05/29 04:53:46;;;;;;;20.85;10.70;;;;;;;-145.50;100.00;65435.88;4977491;28;20133;-73
2021/05/29 04:56:14;;;;;;;16.08;10.48;;;;;;;-145.50;100.00;65435.88;4975468;28;20485;-73
2021/05/29 04:58:41;;;;;;;22.08;11.65;;;;;;;-145.50;100.00;65435.88;4968235;28;20442;-73
2021/05/29 05:01:10;;;;;;;19.98;11.02;;;;;;;-145.50;100.00;65435.88;4981516;28;20086;-74
2021/05/29 05:03:38;;;;;;;18.67;10.63;;;;;;;-145.50;100.00;65435.88;4972064;28;20050;-74
2021/05/29 05:06:05;;;;;;;23.50;10.95;;;;;;;-145.50;100.00;65435.88;4985017;28;20489;-74
2021/05/29 05:08:31;;;;;;;19.08;11.75;;;;;;;-145.50;100.00;65435.88;4980790;28;20086;-73
2021/05/29 05:10:59;;;;;;;17.70;10.60;;;;;;;-145.50;100.00;65435.88;4968292;28;20178;-73
2021/05/29 05:13:26;;;;;;;18.25;11.48;;;;;;;-145.50;100.00;65435.88;4978716;28;20138;-73
2021/05/29 05:15:53;;;;;;;19.15;11.00;;;;;;;-145.50;100.00;65435.88;4976786;28;20121;-73
2021/05/29 05:18:21;;;;;;;17.33;10.40;;;;;;;-145.50;100.00;65435.88;4964818;28;20387;-73
2021/05/29 05:20:48;;;;;;;;;;;;;;;-145.50;100.00;65435.88;4976217;28;20078;-74
2021/05/29 05:23:14;;;;;;;22.50;11.85;;;;;;;-145.50;100.00;65435.88;4979304;28;19972;-73
2021/05/29 05:25:41;;;;;;;19.65;11.27;;;;;;;-145.50;100.00;65435.88;4977011;28;20543;-73
2021/05/29 05:28:12;;;;;;;20.38;11.20;;;;;;;-145.50;100.00;65435.88;4960304;28;20058;-73
2021/05/29 05:30:38;;;;;;;20.95;11.35;;;;;;;-145.50;100.00;65435.88;4979716;28;20506;-74
2021/05/29 05:33:06;;;;;;;23.65;12.45;;;;;;;-145.50;100.00;65435.88;4960030;28;20563;-74
2021/05/29 05:35:32;;;;;;;20.25;11.35;;;;;;;-145.50;100.00;65435.88;4981735;28;20081;-73
2021/05/29 05:37:59;;;;;;;21.88;11.55;;;;;;;-145.50;100.00;65435.88;4971372;28;20148;-74
2021/05/29 05:40:26;;;;;;;22.52;12.88;;;;;;;-145.50;100.00;65435.88;4972974;28;20533;-73
2021/05/29 05:42:52;;;;;;;21.13;12.32;;;;;;;-145.50;100.00;65435.88;4982731;28;20133;-74
2021/05/29 05:45:19;;;;;;;21.23;12.40;;;;;;;-145.50;100.00;65435.88;4977467;28;20093;-73
2021/05/29 05:47:46;;;;;;;21.40;11.85;;;;;;;-145.50;100.00;65435.88;4982267;28;20418;-74
2021/05/29 05:50:13;;;;;;;20.55;11.82;;;;;;;-145.50;100.00;65435.88;4976958;28;20529;-73
2021/05/29 05:52:40;;;;;;;20.65;12.07;;;;;;;-145.50;100.00;65435.88;4976958;28;20073;-74
2021/05/29 05:55:09;;;;;;;19.25;11.38;;;;;;;-145.50;100.00;65435.88;4968168;28;20141;-74
2021/05/29 05:57:36;;;;;;;19.13;11.13;;;;;;;-145.50;100.00;65435.88;4984239;28;20054;-73
2021/05/29 06:00:08;;;;;;;20.95;11.20;;;;;;;-145.50;100.00;65435.88;4988466;28;20109;-74
2021/05/29 06:02:34;;;;;;;20.02;12.15;;;;;;;-145.50;100.00;65435.88;4960092;28;20147;-73
2021/05/29 06:05:02;;;;;;;19.08;12.02;;;;;;;-145.50;100.00;65435.88;4982548;28;20054;-73
2021/05/29 06:07:29;;;;;;;23.23;12.95;;;;;;;-145.50;100.00;65435.88;4973116;28;20104;-73
2021/05/29 06:09:55;;;;;;;20.05;12.43;;;;;;;-145.50;100.00;65435.88;4985073;28;20074;-74
2021/05/29 06:12:22;;;;;;;19.02;11.15;;;;;;;-145.50;100.00;65435.88;4973843;28;20106;-73
2021/05/29 06:20:19;;;;;;;19.70;11.98;;;;;;;-145.50;100.00;65435.88;4981037;28;20077;-74
2021/05/29 06:22:45;;;;;;;18.83;11.55;;;;;;;-145.50;100.00;65435.88;4981292;28;20085;-74
2021/05/29 06:25:14;;;;;;;19.52;10.98;;;;;;;-145.50;100.00;65435.88;4972283;28;20061;-73
2021/05/29 06:27:41;;;;;;;16.50;9.68;;;;;;;-145.50;100.00;65435.88;4982263;28;20448;-74
2021/05/29 06:30:09;;;;;;;19.63;11.98;;;;;;;-145.50;100.00;65435.88;4959993;28;20054;-74
2021/05/29 06:32:36;;;;;;;20.00;11.27;;;;;;;-145.50;100.00;65435.88;4980395;28;20156;-74
2021/05/29 06:35:07;;;;;;;19.50;11.38;;;;;;;-145.50;100.00;65435.88;4967998;28;20425;-74
2021/05/29 06:37:36;;;;;;;18.58;11.73;;;;;;;-145.50;100.00;65435.88;4983162;28;20093;-74
2021/05/29 06:40:06;;;;;;;17.58;11.57;;;;;;;-145.50;100.00;65435.88;4981302;28;20081;-73
2021/05/29 06:42:33;;;;;;;21.75;12.57;;;;;;;-145.50;100.00;65435.88;4979049;28;20050;-73
2021/05/29 06:45:00;;;;;;;19.83;12.82;;;;;;;-145.50;100.00;65435.88;4986240;28;20062;-76
2021/05/29 06:47:26;;;;;;;24.17;14.60;;;;;;;-145.50;100.00;65435.88;4972922;28;20085;-73
2021/05/29 06:49:53;;;;;;;19.70;12.65;;;;;;;-145.50;100.00;65435.88;4964182;28;20126;-75
2021/05/29 06:52:24;;;;;;;22.60;13.75;;;;;;;-145.50;100.00;65435.88;4980129;28;20116;-74
2021/05/29 06:58:34;;;;;;;21.85;13.85;;;;;;;-145.50;100.00;65435.88;4986383;28;20132;-73
2021/05/29 07:00:30;;;;;;;24.27;15.85;;;;;;;-145.50;100.00;65435.88;4981006;28;20096;-74
2021/05/29 07:02:57;;;;;;;21.92;14.52;;;;;;;-145.50;100.00;65435.88;4969147;28;20228;-74
2021/05/29 07:05:28;;;;;;;22.08;12.98;;;;;;;-145.50;100.00;65435.88;4987315;28;20052;-73
2021/05/29 07:07:54;;;;;;;23.20;13.77;;;;;;;-145.50;100.00;65435.88;4966340;28;20152;-74
2021/05/29 07:10:21;;;;;;;21.92;13.13;;;;;;;-145.50;100.00;65435.88;4977492;28;20084;-74
2021/05/29 07:12:47;;;;;;;20.05;13.07;;;;;;;-145.50;100.00;65435.88;4981797;28;20086;-74
2021/05/29 07:15:15;;;;;;;23.45;14.07;;;;;;;-145.50;100.00;65435.88;4976951;28;20890;-75
2021/05/29 07:17:44;;;;;;;18.20;12.95;;;;;;;-145.50;100.00;65435.88;4976195;28;20132;-73
2021/05/29 07:20:11;;;;;;;21.42;13.13;;;;;;;-145.50;100.00;65435.88;4965511;28;20141;-73
2021/05/29 07:22:38;;;;;;;20.52;13.23;;;;;;;-145.50;100.00;65435.88;4972904;28;20172;-75
2021/05/29 07:25:06;;;;;;;22.70;12.73;;;;;;;-145.50;100.00;65435.88;4983581;28;20485;-74
2021/05/29 07:27:33;;;;;;;22.70;13.55;;;;;;;-145.50;100.00;65435.88;4974108;28;20137;-75
2021/05/29 07:30:07;;;;;;;20.40;12.93;;;;;;;-145.50;100.00;65435.88;4977148;28;20054;-73
2021/05/29 07:32:35;;;;;;;23.15;14.02;;;;;;;-145.50;100.00;65435.88;4974037;28;20085;-74
2021/05/29 07:35:03;;;;;;;23.52;13.80;;;;;;;-145.50;100.00;65435.88;4985056;28;20050;-75
2021/05/29 07:37:29;;;;;;;21.17;13.73;;;;;;;-145.50;100.00;65435.88;4985779;28;20137;-73
2021/05/29 07:39:56;;;;;;;19.05;12.55;;;;;;;-145.50;100.00;65435.88;4978129;28;20088;-73
2021/05/29 07:42:22;;;;;;;20.67;12.73;;;;;;;-145.50;100.00;65435.88;4978481;28;20162;-73
2021/05/29 07:44:49;;;;;;;18.58;11.45;;;;;;;-145.50;100.00;65435.88;4973208;28;20046;-75
2021/05/29 07:47:17;;;;;;;18.73;12.45;;;;;;;-145.50;100.00;65435.88;4964210;28;20375;-75
2021/05/29 07:49:44;;;;;;;17.85;12.48;;;;;;;-145.50;100.00;65435.88;4975416;28;20086;-75
2021/05/29 07:52:11;;;;;;;18.38;12.52;;;;;;;-145.50;100.00;65435.88;4981676;28;20089;-75
2021/05/29 07:54:38;;;;;;;22.42;12.10;;;;;;;-145.50;100.00;65435.88;4959745;28;20054;-75
2021/05/29 07:57:09;;;;;;;20.70;12.27;;;;;;;-145.50;100.00;65435.88;4974727;28;20057;-75
2021/05/29 07:59:37;;;;;;;19.35;12.10;;;;;;;-145.50;100.00;65435.88;4985173;28;20086;-75
2021/05/29 08:02:04;;;;;;;20.90;12.07;;;;;;;-145.50;100.00;65435.88;4975220;28;20096;-74
2021/05/29 08:04:32;;;;;;;18.67;11.70;;;;;;;-145.50;100.00;65435.88;4984050;28;20083;-75
2021/05/29 08:06:58;;;;;;;18.58;11.60;;;;;;;-145.50;100.00;65435.88;4971894;28;20058;-75
2021/05/29 08:09:25;;;;;;;21.38;13.57;;;;;;;-145.50;100.00;65435.88;4959631;28;20532;-74
2021/05/29 08:11:51;;;;;;;21.58;12.23;;;;;;;-145.50;100.00;65435.88;4974912;28;20114;-75
2021/05/29 08:14:18;;;;;;;20.15;12.10;;;;;;;-145.50;100.00;65435.88;4975031;28;20058;-74
2021/05/29 08:16:45;;;;;;;18.85;12.00;;;;;;;-145.50;100.00;65435.88;4978722;28;20128;-75
2021/05/29 08:19:12;;;;;;;18.48;10.82;;;;;;;-145.50;100.00;65435.88;4969076;28;20141;-75
2021/05/29 08:21:41;;;;;;;16.80;11.40;;;;;;;-145.50;100.00;65435.88;4965714;28;20074;-75
2021/05/29 08:24:09;;;;;;;16.77;10.70;;;;;;;-145.50;100.00;65435.88;4944663;28;20089;-75
2021/05/29 08:26:36;;;;;;;21.33;11.63;;;;;;;-145.50;100.00;65435.88;4978519;28;20386;-75
2021/05/29 08:29:04;;;;;;;18.77;11.60;;;;;;;-145.50;100.00;65435.88;4972104;28;20453;-74
2021/05/29 08:31:31;;;;;;;15.95;10.50;;;;;;;-145.50;100.00;65435.88;4977688;28;20082;-75
2021/05/29 08:33:58;;;;;;;15.48;10.18;;;;;;;-145.50;100.00;65435.88;4976534;28;20529;-75
2021/05/29 08:36:25;;;;;;;15.43;10.32;;;;;;;-145.50;100.00;65435.88;4951471;28;20141;-75
2021/05/29 08:38:52;;;;;;;15.70;10.35;;;;;;;-145.50;100.00;65435.88;4978080;28;20157;-75
2021/05/29 08:41:18;;;;;;;18.30;11.70;;;;;;;-145.50;100.00;65435.88;4970280;28;20129;-75
2021/05/29 08:43:45;;;;;;;16.98;10.50;;;;;;;-145.50;100.00;65435.88;4983537;28;20069;-74
2021/05/29 08:46:12;;;;;;;15.20;10.32;;;;;;;-145.50;100.00;65435.88;4976602;28;20486;-75
2021/05/29 08:48:40;;;;;;;16.83;11.15;;;;;;;-145.50;100.00;65435.88;4979058;28;20054;-74
2021/05/29 08:51:14;;;;;;;15.10;10.97;;;;;;;-145.50;100.00;65435.88;4976789;28;20081;-74
2021/05/29 08:53:52;;;;;;;19.08;10.55;;;;;;;-145.50;100.00;65435.88;4971873;28;20137;-75
2021/05/29 08:56:22;;;;;;;16.27;11.05;;;;;;;-145.50;100.00;65435.88;4979374;28;20108;-73
2021/05/29 08:58:49;;;;;;;19.38;9.48;;;;;;;-145.50;100.00;65435.88;4974028;28;20081;-73
2021/05/29 09:01:16;;;;;;;22.38;11.15;;;;;;;-145.50;100.00;65435.88;4980060;28;20715;-73
2021/05/29 09:03:59;;;;;;;17.60;10.57;;;;;;;-145.50;100.00;65435.88;4969261;28;20050;-74
2021/05/29 09:06:25;;;;;;;18.48;10.75;;;;;;;-145.50;100.00;65435.88;4976400;28;20081;-73
2021/05/29 09:08:57;;;;;;;16.40;10.50;;;;;;;-145.50;100.00;65435.88;4965636;28;20047;-73
2021/05/29 09:11:47;;;;;;;16.70;10.45;;;;;;;-145.50;100.00;65435.88;4975124;28;20125;-74
2021/05/29 09:14:32;;;;;;;17.63;11.30;;;;;;;-145.50;100.00;65435.88;4978112;28;20466;-73
2021/05/29 09:17:21;;;;;;;15.15;11.10;;;;;;;-145.50;100.00;65435.88;4966948;28;20498;-73
2021/05/29 09:20:09;;;;;;;15.23;9.75;;;;;;;-145.50;100.00;65435.88;4978512;28;20086;-73
2021/05/29 09:22:38;;;;;;;16.17;10.32;;;;;;;-145.50;100.00;65435.88;4972413;28;20588;-73
2021/05/29 09:25:09;;;;;;;15.57;10.48;;;;;;;-145.50;100.00;65435.88;4982027;28;20498;-74
2021/05/29 09:27:58;;;;;;;15.25;10.02;;;;;;;-145.50;100.00;65435.88;4970863;28;20056;-73
2021/05/29 09:30:43;;;;;;;15.02;10.73;;;;;;;-145.50;100.00;65435.88;4974551;28;20050;-73
2021/05/29 09:33:14;;;;;;;13.80;9.88;;;;;;;-145.50;100.00;65435.88;4969795;28;20671;-73
2021/05/29 09:35:41;;;;;;;15.45;10.30;;;;;;;-145.50;100.00;65435.88;4968474;28;20062;-74
2021/05/29 09:38:08;;;;;;;14.05;9.82;;;;;;;-145.50;100.00;65435.88;4978837;28;20058;-73
2021/05/29 09:40:35;;;;;;;19.25;10.50;;;;;;;-145.50;100.00;65435.88;4984422;28;20116;-74
2021/05/29 09:43:08;;;;;;;18.33;11.63;;;;;;;-145.50;100.00;65435.88;4984704;28;20190;-73
2021/05/29 09:45:34;;;;;;;15.52;11.05;;;;;;;-145.50;100.00;65435.88;4976911;28;20437;-73
2021/05/29 09:48:20;;;;;;;15.80;11.15;;;;;;;-145.50;100.00;65435.88;4984362;28;20081;-73
2021/05/29 09:51:09;;;;;;;23.50;14.73;;;;;;;-145.50;100.00;65435.88;4979590;28;20078;-73
2021/05/29 09:53:38;;;;;;;14.38;11.00;;;;;;;-145.50;100.00;65435.88;4986368;28;20058;-73
2021/05/29 09:56:07;;;;;;;14.05;11.07;;;;;;;-145.50;100.00;65435.88;4977547;28;20058;-73
2021/05/29 09:58:56;;;;;;;14.63;10.35;;;;;;;-145.50;100.00;65435.88;4980376;28;20374;-73
2021/05/29 10:01:44;;;;;;;14.00;9.65;;;;;;;-145.50;100.00;65435.88;4969604;28;20046;-73
2021/05/29 10:04:16;;;;;;;14.88;9.60;;;;;;;-145.50;100.00;65435.88;4988964;28;20489;-73
2021/05/29 10:06:54;;;;;;;14.55;10.55;;;;;;;-145.50;100.00;65435.88;4987403;28;20082;-74
2021/05/29 10:09:21;;;;;;;15.65;10.68;;;;;;;-145.50;100.00;65435.88;4978277;28;20105;-73
2021/05/29 10:11:47;;;;;;;20.70;9.95;;;;;;;-145.50;100.00;65435.88;4982893;28;20582;-73
2021/05/29 10:14:14;;;;;;;16.23;8.82;;;;;;;-145.50;100.00;65435.88;4969226;28;20262;-73
2021/05/29 10:16:41;;;;;;;11.60;8.68;;;;;;;-145.50;100.00;65435.88;4984352;28;20056;-73
2021/05/29 10:19:10;;;;;;;12.82;9.48;;;;;;;-145.50;100.00;65435.88;4979813;28;20082;-75
2021/05/29 10:21:38;;;;;;;14.13;8.98;;;;;;;-145.50;100.00;65435.88;4981423;28;20101;-75
2021/05/29 10:24:06;;;;;;;13.65;7.80;;;;;;;-145.50;100.00;65435.88;4983715;28;20108;-73
2021/05/29 10:26:33;;;;;;;;;;;;;;;-145.50;100.00;65435.88;4978787;28;20137;-73
2021/05/29 10:29:01;;;;;;;12.33;7.80;;;;;;;-145.50;100.00;65435.88;4985665;28;20280;-73
2021/05/29 10:31:31;;;;;;;9.73;7.25;;;;;;;-145.50;100.00;65435.88;4978096;28;20694;-74
2021/05/29 10:34:07;;;;;;;10.05;6.97;;;;;;;-145.50;100.00;65435.88;4984787;28;20054;-74
2021/05/29 10:36:41;;;;;;;11.45;7.32;;;;;;;-145.50;100.00;65435.88;4977461;28;20520;-74
2021/05/29 10:39:41;;;;;;;16.85;7.18;;;;;;;-145.50;100.00;65435.88;4975714;28;20168;-74
2021/05/29 10:42:08;;;;;;;10.63;6.80;;;;;;;-145.50;100.00;65435.88;4954732;28;20114;-73
2021/05/29 10:45:13;;;;;;;9.40;6.15;;;;;;;-145.50;100.00;65435.88;4975566;28;20425;-73
2021/05/29 10:48:04;;;;;;;10.82;6.53;;;;;;;-145.50;100.00;65435.88;4976861;28;20047;-73
2021/05/29 10:51:06;;;;;;;8.20;6.05;;;;;;;-145.50;100.00;65435.88;4983824;28;20070;-73
2021/05/29 10:53:43;;;;;;;10.57;6.60;;;;;;;-145.50;100.00;65435.88;4965122;28;20133;-74
2021/05/29 10:56:18;;;;;;;10.05;5.97;;;;;;;-145.50;100.00;65435.88;4959167;28;20046;-74
2021/05/29 10:58:58;;;;;;;8.15;5.65;;;;;;;-145.50;100.00;65435.88;4976725;28;20474;-74
2021/05/29 11:01:41;;;;;;;9.23;6.13;;;;;;;-145.50;100.00;65435.88;4981796;28;20233;-74
2021/05/29 11:04:11;;;;;;;8.63;5.57;;;;;;;-145.50;100.00;65435.88;4982734;28;20053;-73
2021/05/29 11:06:41;;;;;;;8.45;6.25;;;;;;;-145.50;100.00;65435.88;4953526;28;20062;-74
2021/05/29 11:09:09;;;;;;;8.50;5.55;;;;;;;-145.50;100.00;65435.88;4977736;28;20491;-74
2021/05/29 11:11:35;;;;;;;10.13;5.55;;;;;;;-145.50;100.00;65435.88;4973885;28;20073;-74
2021/05/29 11:14:06;;;;;;;8.45;5.40;;;;;;;-145.50;100.00;65435.88;4981484;28;20054;-73
2021/05/29 11:16:45;;;;;;;7.20;4.70;;;;;;;-145.50;100.00;65435.88;4974589;28;20085;-74